sensor_id;sensor_type;location;lat;lon;timestamp;pressure;altitude;pressure_sealevel;temperature;humidity
43488;BME280;29078;41.932;25.554;2023-02-17T00:03:47;100583.72;;;4.86;56.93
43488;BME280;29078;41.932;25.554;2023-02-17T00:06:14;100546.91;;;4.54;57.01
43488;BME280;29078;41.932;25.554;2023-02-17T00:08:40;100430.56;;;3.78;57.24
43488;BME280;29078;41.932;25.554;2023-02-17T00:11:05;100448.78;;;3.91;57.31
43488;BME280;29078;41.932;25.554;2023-02-17T00:13:32;100496.53;;;4.28;57.36
43488;BME280;29078;41.932;25.554;2023-02-17T00:15:57;100478.66;;;4.10;57.07
43488;BME280;29078;41.932;25.554;2023-02-17T00:18:23;100476.38;;;4.06;57.12
43488;BME280;29078;41.932;25.554;2023-02-17T00:20:49;100511.97;;;4.31;57.21
43488;BME280;29078;41.932;25.554;2023-02-17T00:23:15;100594.75;;;4.78;57.17
43488;BME280;29078;41.932;25.554;2023-02-17T00:25:40;100479.50;;;4.11;57.25
43488;BME280;29078;41.932;25.554;2023-02-17T00:28:05;100465.78;;;3.96;57.03
43488;BME280;29078;41.932;25.554;2023-02-17T00:30:31;100532.31;;;4.38;57.17
43488;BME280;29078;41.932;25.554;2023-02-17T00:32:56;100571.88;;;4.58;57.32
43488;BME280;29078;41.932;25.554;2023-02-17T00:35:22;100477.25;;;3.82;57.21
43488;BME280;29078;41.932;25.554;2023-02-17T00:37:47;100489.44;;;4.06;57.06
43488;BME280;29078;41.932;25.554;2023-02-17T00:40:13;100537.91;;;4.34;57.28
43488;BME280;29078;41.932;25.554;2023-02-17T00:42:39;100555.22;;;4.47;57.25
43488;BME280;29078;41.932;25.554;2023-02-17T00:45:05;100276.50;;;2.71;57.39
43488;BME280;29078;41.932;25.554;2023-02-17T00:47:31;100565.38;;;4.39;57.31
43488;BME280;29078;41.932;25.554;2023-02-17T00:49:57;100496.78;;;4.01;57.25
43488;BME280;29078;41.932;25.554;2023-02-17T00:52:22;100455.13;;;3.75;57.14
43488;BME280;29078;41.932;25.554;2023-02-17T00:54:47;100511.19;;;4.06;57.17
43488;BME280;29078;41.932;25.554;2023-02-17T00:57:13;100507.63;;;4.07;57.17
43488;BME280;29078;41.932;25.554;2023-02-17T00:59:38;100518.81;;;4.09;56.67
43488;BME280;29078;41.932;25.554;2023-02-17T01:02:04;100488.00;;;4.02;57.09
43488;BME280;29078;41.932;25.554;2023-02-17T01:04:29;100481.53;;;3.83;57.03
43488;BME280;29078;41.932;25.554;2023-02-17T01:06:55;100504.09;;;4.20;56.85
43488;BME280;29078;41.932;25.554;2023-02-17T01:09:20;100499.34;;;4.13;56.66
43488;BME280;29078;41.932;25.554;2023-02-17T01:11:46;100533.03;;;4.40;56.57
43488;BME280;29078;41.932;25.554;2023-02-17T01:14:12;100390.78;;;3.50;56.80
43488;BME280;29078;41.932;25.554;2023-02-17T01:16:40;100520.44;;;4.34;56.69
43488;BME280;29078;41.932;25.554;2023-02-17T01:19:09;100410.03;;;3.61;56.64
43488;BME280;29078;41.932;25.554;2023-02-17T01:21:35;100385.16;;;3.44;56.68
43488;BME280;29078;41.932;25.554;2023-02-17T01:24:03;100517.56;;;4.26;56.74
43488;BME280;29078;41.932;25.554;2023-02-17T01:26:31;100379.78;;;3.34;56.74
43488;BME280;29078;41.932;25.554;2023-02-17T01:28:57;100512.28;;;4.15;56.96
43488;BME280;29078;41.932;25.554;2023-02-17T01:31:23;100515.09;;;4.01;57.33
43488;BME280;29078;41.932;25.554;2023-02-17T01:33:52;100504.25;;;3.94;57.44
43488;BME280;29078;41.932;25.554;2023-02-17T01:36:18;100431.31;;;3.43;57.37
43488;BME280;29078;41.932;25.554;2023-02-17T01:38:44;100365.69;;;3.13;57.26
43488;BME280;29078;41.932;25.554;2023-02-17T01:41:14;100454.72;;;3.69;57.35
43488;BME280;29078;41.932;25.554;2023-02-17T01:43:40;100499.25;;;3.91;57.47
43488;BME280;29078;41.932;25.554;2023-02-17T01:46:07;100499.25;;;3.91;57.01
43488;BME280;29078;41.932;25.554;2023-02-17T01:48:43;100506.25;;;3.91;57.32
43488;BME280;29078;41.932;25.554;2023-02-17T01:51:21;100487.31;;;3.76;57.08
43488;BME280;29078;41.932;25.554;2023-02-17T01:53:59;100437.22;;;3.58;56.64
43488;BME280;29078;41.932;25.554;2023-02-17T01:56:26;100447.66;;;3.58;57.02
43488;BME280;29078;41.932;25.554;2023-02-17T01:58:56;100429.50;;;3.57;56.87
43488;BME280;29078;41.932;25.554;2023-02-17T02:01:24;100450.88;;;3.62;57.16
43488;BME280;29078;41.932;25.554;2023-02-17T02:03:51;100480.06;;;3.79;57.01
43488;BME280;29078;41.932;25.554;2023-02-17T02:06:19;100402.94;;;3.39;57.31
43488;BME280;29078;41.932;25.554;2023-02-17T02:09:08;100436.81;;;3.51;57.34
43488;BME280;29078;41.932;25.554;2023-02-17T02:11:36;100313.19;;;2.81;57.56
43488;BME280;29078;41.932;25.554;2023-02-17T02:14:03;100345.81;;;2.99;57.34
43488;BME280;29078;41.932;25.554;2023-02-17T02:24:50;100381.28;;;3.26;57.45
43488;BME280;29078;41.932;25.554;2023-02-17T02:33:15;100478.03;;;3.72;56.87
43488;BME280;29078;41.932;25.554;2023-02-17T02:35:57;100479.16;;;3.68;57.08
43488;BME280;29078;41.932;25.554;2023-02-17T02:38:39;100431.53;;;3.40;57.25
43488;BME280;29078;41.932;25.554;2023-02-17T02:41:21;100387.22;;;3.04;56.84
43488;BME280;29078;41.932;25.554;2023-02-17T02:43:49;100462.44;;;3.46;57.26
43488;BME280;29078;41.932;25.554;2023-02-17T02:46:14;100338.75;;;2.76;57.14
43488;BME280;29078;41.932;25.554;2023-02-17T02:48:40;100465.94;;;3.58;57.08
43488;BME280;29078;41.932;25.554;2023-02-17T02:51:12;100461.66;;;3.57;57.10
43488;BME280;29078;41.932;25.554;2023-02-17T02:59:33;100464.50;;;3.54;56.74
43488;BME280;29078;41.932;25.554;2023-02-17T03:07:31;100465.66;;;3.50;57.25
43488;BME280;29078;41.932;25.554;2023-02-17T03:09:59;100387.53;;;2.99;57.12
43488;BME280;29078;41.932;25.554;2023-02-17T03:12:26;100393.06;;;3.07;56.72
43488;BME280;29078;41.932;25.554;2023-02-17T03:15:02;100468.25;;;3.50;57.04
43488;BME280;29078;41.932;25.554;2023-02-17T03:17:30;100370.13;;;2.87;57.30
43488;BME280;29078;41.932;25.554;2023-02-17T03:19:57;100423.56;;;3.31;56.57
43488;BME280;29078;41.932;25.554;2023-02-17T03:22:25;100428.59;;;3.21;57.00
43488;BME280;29078;41.932;25.554;2023-02-17T03:24:54;100314.13;;;2.43;57.12
43488;BME280;29078;41.932;25.554;2023-02-17T03:27:19;100417.69;;;3.03;57.42
43488;BME280;29078;41.932;25.554;2023-02-17T03:29:44;100322.97;;;2.53;57.11
43488;BME280;29078;41.932;25.554;2023-02-17T03:32:10;100309.53;;;2.47;56.96
43488;BME280;29078;41.932;25.554;2023-02-17T03:34:36;100271.72;;;2.16;57.16
43488;BME280;29078;41.932;25.554;2023-02-17T03:37:01;100331.09;;;2.49;56.85
43488;BME280;29078;41.932;25.554;2023-02-17T03:39:27;100340.47;;;2.64;56.70
43488;BME280;29078;41.932;25.554;2023-02-17T03:41:52;100345.56;;;2.66;56.64
43488;BME280;29078;41.932;25.554;2023-02-17T03:44:18;100326.81;;;2.61;56.62
43488;BME280;29078;41.932;25.554;2023-02-17T03:46:44;100419.09;;;3.20;56.74
43488;BME280;29078;41.932;25.554;2023-02-17T03:49:10;100427.66;;;3.22;56.62
43488;BME280;29078;41.932;25.554;2023-02-17T03:51:35;100413.91;;;2.95;56.50
43488;BME280;29078;41.932;25.554;2023-02-17T03:54:01;100289.53;;;2.22;56.74
43488;BME280;29078;41.932;25.554;2023-02-17T03:56:26;100439.41;;;3.04;57.12
43488;BME280;29078;41.932;25.554;2023-02-17T03:58:52;100353.00;;;2.46;56.95
43488;BME280;29078;41.932;25.554;2023-02-17T04:01:18;100444.94;;;2.99;56.98
43488;BME280;29078;41.932;25.554;2023-02-17T04:03:44;100390.91;;;2.76;56.95
43488;BME280;29078;41.932;25.554;2023-02-17T04:06:10;100434.06;;;3.05;56.42
43488;BME280;29078;41.932;25.554;2023-02-17T04:08:37;100346.84;;;2.47;56.60
43488;BME280;29078;41.932;25.554;2023-02-17T04:11:04;100337.81;;;2.28;56.90
43488;BME280;29078;41.932;25.554;2023-02-17T04:13:30;100376.66;;;2.56;56.74
43488;BME280;29078;41.932;25.554;2023-02-17T04:15:56;100390.72;;;2.66;57.16
43488;BME280;29078;41.932;25.554;2023-02-17T04:18:22;100452.94;;;2.96;57.02
43488;BME280;29078;41.932;25.554;2023-02-17T04:20:49;100449.00;;;2.91;56.82
43488;BME280;29078;41.932;25.554;2023-02-17T04:23:16;100457.13;;;2.86;57.24
43488;BME280;29078;41.932;25.554;2023-02-17T04:25:41;100469.13;;;2.76;57.46
43488;BME280;29078;41.932;25.554;2023-02-17T04:28:07;100324.34;;;1.96;57.17
43488;BME280;29078;41.932;25.554;2023-02-17T04:30:33;100299.56;;;1.77;57.46
43488;BME280;29078;41.932;25.554;2023-02-17T04:32:59;100384.16;;;2.22;57.43
43488;BME280;29078;41.932;25.554;2023-02-17T04:35:25;100295.28;;;1.76;57.43
43488;BME280;29078;41.932;25.554;2023-02-17T04:37:51;100309.47;;;1.85;57.14
43488;BME280;29078;41.932;25.554;2023-02-17T04:40:17;100444.00;;;2.75;57.16
43488;BME280;29078;41.932;25.554;2023-02-17T04:42:42;100448.91;;;2.67;56.95
43488;BME280;29078;41.932;25.554;2023-02-17T04:45:09;100406.81;;;2.35;57.20
43488;BME280;29078;41.932;25.554;2023-02-17T04:47:34;100391.59;;;2.29;57.08
43488;BME280;29078;41.932;25.554;2023-02-17T04:50:00;100391.66;;;2.14;57.17
43488;BME280;29078;41.932;25.554;2023-02-17T04:52:26;100452.38;;;2.54;57.26
43488;BME280;29078;41.932;25.554;2023-02-17T04:54:51;100407.66;;;2.35;57.21
43488;BME280;29078;41.932;25.554;2023-02-17T04:57:17;100353.19;;;1.80;57.23
43488;BME280;29078;41.932;25.554;2023-02-17T04:59:42;100406.09;;;2.33;57.40
43488;BME280;29078;41.932;25.554;2023-02-17T05:02:08;100349.97;;;1.89;57.08
43488;BME280;29078;41.932;25.554;2023-02-17T05:04:33;100462.47;;;2.59;56.91
43488;BME280;29078;41.932;25.554;2023-02-17T05:06:59;100355.38;;;1.73;57.11
43488;BME280;29078;41.932;25.554;2023-02-17T05:09:24;100330.28;;;1.72;57.08
43488;BME280;29078;41.932;25.554;2023-02-17T05:11:50;100355.91;;;1.78;56.71
43488;BME280;29078;41.932;25.554;2023-02-17T05:14:15;100340.38;;;1.77;56.87
43488;BME280;29078;41.932;25.554;2023-02-17T05:16:41;100404.78;;;2.13;56.68
43488;BME280;29078;41.932;25.554;2023-02-17T05:19:06;100452.38;;;2.54;56.77
43488;BME280;29078;41.932;25.554;2023-02-17T05:21:32;100435.38;;;2.36;56.68
43488;BME280;29078;41.932;25.554;2023-02-17T05:23:57;100435.44;;;2.22;56.67
43488;BME280;29078;41.932;25.554;2023-02-17T05:26:23;100325.28;;;1.69;56.82
43488;BME280;29078;41.932;25.554;2023-02-17T05:28:48;100392.59;;;2.01;56.73
43488;BME280;29078;41.932;25.554;2023-02-17T05:31:14;100364.34;;;1.95;56.84
43488;BME280;29078;41.932;25.554;2023-02-17T05:33:39;100447.34;;;2.39;56.46
43488;BME280;29078;41.932;25.554;2023-02-17T05:36:06;100480.81;;;2.58;56.56
43488;BME280;29078;41.932;25.554;2023-02-17T05:38:32;100417.84;;;2.38;56.37
43488;BME280;29078;41.932;25.554;2023-02-17T05:40:58;100311.53;;;1.67;56.21
43488;BME280;29078;41.932;25.554;2023-02-17T05:43:23;100420.56;;;2.37;56.67
43488;BME280;29078;41.932;25.554;2023-02-17T05:45:49;100396.66;;;2.17;56.15
43488;BME280;29078;41.932;25.554;2023-02-17T05:48:14;100493.44;;;2.89;56.49
43488;BME280;29078;41.932;25.554;2023-02-17T05:50:40;100401.81;;;2.32;56.45
43488;BME280;29078;41.932;25.554;2023-02-17T05:53:05;100357.09;;;2.25;55.74
43488;BME280;29078;41.932;25.554;2023-02-17T05:55:31;100488.22;;;3.02;55.93
43488;BME280;29078;41.932;25.554;2023-02-17T05:57:56;100438.97;;;2.84;56.14
43488;BME280;29078;41.932;25.554;2023-02-17T06:00:22;100442.84;;;2.92;56.27
43488;BME280;29078;41.932;25.554;2023-02-17T06:02:47;100507.94;;;3.18;55.96
43488;BME280;29078;41.932;25.554;2023-02-17T06:05:13;100500.72;;;3.22;55.86
43488;BME280;29078;41.932;25.554;2023-02-17T06:07:39;100510.84;;;3.27;55.89
43488;BME280;29078;41.932;25.554;2023-02-17T06:10:05;100386.44;;;2.65;55.69
43488;BME280;29078;41.932;25.554;2023-02-17T06:12:30;100344.16;;;2.49;55.82
43488;BME280;29078;41.932;25.554;2023-02-17T06:14:56;100496.69;;;3.42;55.62
43488;BME280;29078;41.932;25.554;2023-02-17T06:17:21;100502.06;;;3.28;55.96
43488;BME280;29078;41.932;25.554;2023-02-17T06:19:47;100437.25;;;3.22;55.65
43488;BME280;29078;41.932;25.554;2023-02-17T06:22:12;100454.09;;;3.41;55.45
43488;BME280;29078;41.932;25.554;2023-02-17T06:24:38;100421.53;;;3.10;55.57
43488;BME280;29078;41.932;25.554;2023-02-17T06:27:03;100438.31;;;3.43;55.64
43488;BME280;29078;41.932;25.554;2023-02-17T06:29:29;100421.72;;;3.44;55.79
43488;BME280;29078;41.932;25.554;2023-02-17T06:31:54;100527.66;;;3.96;55.45
43488;BME280;29078;41.932;25.554;2023-02-17T06:34:19;100415.28;;;3.61;55.45
43488;BME280;29078;41.932;25.554;2023-02-17T06:36:45;100508.13;;;4.12;55.52
43488;BME280;29078;41.932;25.554;2023-02-17T06:39:10;100447.84;;;3.92;55.52
43488;BME280;29078;41.932;25.554;2023-02-17T06:41:36;100352.69;;;3.48;55.71
43488;BME280;29078;41.932;25.554;2023-02-17T06:44:01;100444.19;;;4.05;55.31
43488;BME280;29078;41.932;25.554;2023-02-17T06:46:27;100360.81;;;3.67;55.23
43488;BME280;29078;41.932;25.554;2023-02-17T06:48:52;100360.91;;;3.90;55.00
43488;BME280;29078;41.932;25.554;2023-02-17T06:51:17;100156.34;;;2.74;55.14
43488;BME280;29078;41.932;25.554;2023-02-17T06:53:43;100462.50;;;4.63;55.08
43488;BME280;29078;41.932;25.554;2023-02-17T06:56:08;100428.03;;;4.58;55.04
43488;BME280;29078;41.932;25.554;2023-02-17T06:58:35;100492.50;;;5.03;55.30
43488;BME280;29078;41.932;25.554;2023-02-17T07:01:01;100463.09;;;5.00;54.91
43488;BME280;29078;41.932;25.554;2023-02-17T07:03:27;100350.63;;;4.33;54.77
43488;BME280;29078;41.932;25.554;2023-02-17T07:05:56;100451.34;;;5.05;54.74
43488;BME280;29078;41.932;25.554;2023-02-17T07:08:21;100406.50;;;4.88;54.64
43488;BME280;29078;41.932;25.554;2023-02-17T07:10:47;100446.19;;;5.15;54.14
43488;BME280;29078;41.932;25.554;2023-02-17T07:13:12;100190.59;;;3.62;54.10
43488;BME280;29078;41.932;25.554;2023-02-17T07:15:37;100464.53;;;5.26;54.10
43488;BME280;29078;41.932;25.554;2023-02-17T07:18:03;100460.94;;;5.38;54.27
43488;BME280;29078;41.932;25.554;2023-02-17T07:20:29;100381.03;;;5.01;54.04
43488;BME280;29078;41.932;25.554;2023-02-17T07:22:56;100435.84;;;5.36;53.93
43488;BME280;29078;41.932;25.554;2023-02-17T07:25:22;100382.44;;;5.05;53.95
43488;BME280;29078;41.932;25.554;2023-02-17T07:27:47;100456.03;;;5.56;54.27
43488;BME280;29078;41.932;25.554;2023-02-17T07:30:13;100491.19;;;5.97;54.19
43488;BME280;29078;41.932;25.554;2023-02-17T07:32:38;100487.13;;;6.04;54.25
43488;BME280;29078;41.932;25.554;2023-02-17T07:35:04;100367.75;;;5.36;53.98
43488;BME280;29078;41.932;25.554;2023-02-17T07:37:30;100404.41;;;5.68;54.10
43488;BME280;29078;41.932;25.554;2023-02-17T07:39:55;100483.94;;;6.21;54.14
43488;BME280;29078;41.932;25.554;2023-02-17T07:42:21;100352.66;;;5.60;54.03
43488;BME280;29078;41.932;25.554;2023-02-17T07:44:47;100366.97;;;5.77;54.36
43488;BME280;29078;41.932;25.554;2023-02-17T07:47:12;100443.81;;;6.30;54.79
43488;BME280;29078;41.932;25.554;2023-02-17T07:49:38;100498.78;;;6.74;54.35
43488;BME280;29078;41.932;25.554;2023-02-17T07:52:04;100118.28;;;4.51;54.04
43488;BME280;29078;41.932;25.554;2023-02-17T07:54:29;100373.47;;;6.15;54.03
43488;BME280;29078;41.932;25.554;2023-02-17T07:56:55;100380.88;;;6.30;54.33
43488;BME280;29078;41.932;25.554;2023-02-17T07:59:20;100193.59;;;5.21;53.97
43488;BME280;29078;41.932;25.554;2023-02-17T08:01:45;100318.25;;;6.07;54.13
43488;BME280;29078;41.932;25.554;2023-02-17T08:04:11;100357.91;;;6.44;54.06
43488;BME280;29078;41.932;25.554;2023-02-17T08:06:37;100379.63;;;6.55;54.44
43488;BME280;29078;41.932;25.554;2023-02-17T08:09:04;100466.91;;;7.18;54.40
43488;BME280;29078;41.932;25.554;2023-02-17T08:11:48;100426.50;;;7.00;54.60
43488;BME280;29078;41.932;25.554;2023-02-17T08:14:32;100391.91;;;6.85;54.49
43488;BME280;29078;41.932;25.554;2023-02-17T08:16:58;100483.88;;;7.45;53.97
43488;BME280;29078;41.932;25.554;2023-02-17T08:19:24;100508.28;;;7.76;54.24
43488;BME280;29078;41.932;25.554;2023-02-17T08:21:51;100316.69;;;6.65;53.89
43488;BME280;29078;41.932;25.554;2023-02-17T08:24:17;100356.56;;;6.99;54.04
43488;BME280;29078;41.932;25.554;2023-02-17T08:26:44;100467.88;;;7.77;53.71
43488;BME280;29078;41.932;25.554;2023-02-17T08:29:10;100510.25;;;8.03;53.79
43488;BME280;29078;41.932;25.554;2023-02-17T08:31:37;100510.66;;;8.08;53.52
43488;BME280;29078;41.932;25.554;2023-02-17T08:34:05;100466.63;;;7.81;53.54
43488;BME280;29078;41.932;25.554;2023-02-17T08:36:31;100507.09;;;8.18;53.34
43488;BME280;29078;41.932;25.554;2023-02-17T08:38:57;100388.47;;;7.54;53.46
43488;BME280;29078;41.932;25.554;2023-02-17T08:41:31;100507.38;;;8.35;53.51
43488;BME280;29078;41.932;25.554;2023-02-17T08:43:58;100503.91;;;8.44;53.07
43488;BME280;29078;41.932;25.554;2023-02-17T08:46:24;100517.06;;;8.53;53.00
43488;BME280;29078;41.932;25.554;2023-02-17T08:48:50;100518.16;;;8.60;52.99
43488;BME280;29078;41.932;25.554;2023-02-17T08:51:18;100397.16;;;7.93;52.65
43488;BME280;29078;41.932;25.554;2023-02-17T08:53:48;100306.88;;;7.55;52.88
43488;BME280;29078;41.932;25.554;2023-02-17T08:56:14;100465.78;;;8.57;52.48
43488;BME280;29078;41.932;25.554;2023-02-17T08:58:39;100407.78;;;8.40;52.60
43488;BME280;29078;41.932;25.554;2023-02-17T09:01:04;100456.38;;;8.55;52.56
43488;BME280;29078;41.932;25.554;2023-02-17T09:03:33;100465.97;;;8.93;52.07
43488;BME280;29078;41.932;25.554;2023-02-17T09:05:59;100503.38;;;9.34;51.89
43488;BME280;29078;41.932;25.554;2023-02-17T09:08:25;100493.06;;;9.40;52.32
43488;BME280;29078;41.932;25.554;2023-02-17T09:10:51;100369.97;;;8.78;52.26
43488;BME280;29078;41.932;25.554;2023-02-17T09:13:17;100485.19;;;9.58;52.06
43488;BME280;29078;41.932;25.554;2023-02-17T09:15:43;100495.84;;;9.66;51.85
43488;BME280;29078;41.932;25.554;2023-02-17T09:18:08;100407.03;;;9.21;51.59
43488;BME280;29078;41.932;25.554;2023-02-17T09:20:35;100496.22;;;9.71;51.52
43488;BME280;29078;41.932;25.554;2023-02-17T09:23:00;100389.88;;;9.17;51.54
43488;BME280;29078;41.932;25.554;2023-02-17T09:25:26;100493.16;;;9.94;51.76
43488;BME280;29078;41.932;25.554;2023-02-17T09:27:51;100477.25;;;9.85;51.18
43488;BME280;29078;41.932;25.554;2023-02-17T09:30:17;100322.66;;;9.13;50.68
43488;BME280;29078;41.932;25.554;2023-02-17T09:32:43;100423.97;;;9.82;50.99
43488;BME280;29078;41.932;25.554;2023-02-17T09:35:15;100490.81;;;10.26;50.56
43488;BME280;29078;41.932;25.554;2023-02-17T09:37:41;100367.59;;;9.65;50.09
43488;BME280;29078;41.932;25.554;2023-02-17T09:40:14;100476.25;;;10.40;49.87
43488;BME280;29078;41.932;25.554;2023-02-17T09:42:40;100480.13;;;10.45;49.59
43488;BME280;29078;41.932;25.554;2023-02-17T09:45:26;100475.03;;;10.52;48.24
43488;BME280;29078;41.932;25.554;2023-02-17T09:47:58;100397.78;;;10.06;48.62
43488;BME280;29078;41.932;25.554;2023-02-17T09:50:33;100429.59;;;10.40;47.81
43488;BME280;29078;41.932;25.554;2023-02-17T09:53:05;100376.34;;;10.27;47.82
43488;BME280;29078;41.932;25.554;2023-02-17T09:55:47;100390.53;;;10.52;47.50
43488;BME280;29078;41.932;25.554;2023-02-17T10:03:20;100456.28;;;11.23;45.51
43488;BME280;29078;41.932;25.554;2023-02-17T10:08:22;100433.16;;;11.25;45.15
43488;BME280;29078;41.932;25.554;2023-02-17T10:10:54;100306.75;;;10.62;44.61
43488;BME280;29078;41.932;25.554;2023-02-17T10:13:23;100298.34;;;10.67;43.72
43488;BME280;29078;41.932;25.554;2023-02-17T10:15:52;100440.53;;;11.72;43.32
43488;BME280;29078;41.932;25.554;2023-02-17T10:18:31;100369.41;;;11.36;40.86
43488;BME280;29078;41.932;25.554;2023-02-17T10:21:16;100382.66;;;11.53;40.84
43488;BME280;29078;41.932;25.554;2023-02-17T10:23:48;100375.53;;;11.61;41.46
43488;BME280;29078;41.932;25.554;2023-02-17T10:26:21;100428.19;;;12.13;40.70
43488;BME280;29078;41.932;25.554;2023-02-17T10:31:45;100419.38;;;12.45;38.70
43488;BME280;29078;41.932;25.554;2023-02-17T10:34:36;100415.69;;;12.62;38.06
43488;BME280;29078;41.932;25.554;2023-02-17T10:37:03;100420.31;;;12.77;37.42
43488;BME280;29078;41.932;25.554;2023-02-17T10:39:48;100415.13;;;12.91;36.08
43488;BME280;29078;41.932;25.554;2023-02-17T10:42:25;100362.84;;;12.77;35.86
43488;BME280;29078;41.932;25.554;2023-02-17T10:44:57;100398.97;;;13.09;35.58
43488;BME280;29078;41.932;25.554;2023-02-17T10:47:24;100365.59;;;12.92;36.29
43488;BME280;29078;41.932;25.554;2023-02-17T10:49:52;100319.31;;;12.71;35.86
43488;BME280;29078;41.932;25.554;2023-02-17T10:52:20;100347.31;;;13.05;35.56
43488;BME280;29078;41.932;25.554;2023-02-17T10:55:12;100359.56;;;13.37;34.17
43488;BME280;29078;41.932;25.554;2023-02-17T10:57:43;100365.69;;;13.38;34.83
43488;BME280;29078;41.932;25.554;2023-02-17T11:00:15;100336.06;;;13.34;34.33
43488;BME280;29078;41.932;25.554;2023-02-17T11:02:45;100368.38;;;13.83;33.72
43488;BME280;29078;41.932;25.554;2023-02-17T11:05:26;100301.69;;;13.63;33.69
43488;BME280;29078;41.932;25.554;2023-02-17T11:10:58;100266.19;;;13.64;33.62
43488;BME280;29078;41.932;25.554;2023-02-17T11:13:37;100305.69;;;13.97;31.75
43488;BME280;29078;41.932;25.554;2023-02-17T11:16:21;100322.31;;;14.14;32.84
43488;BME280;29078;41.932;25.554;2023-02-17T11:18:49;100222.19;;;13.70;32.91
43488;BME280;29078;41.932;25.554;2023-02-17T11:21:14;100319.19;;;14.40;32.72
43488;BME280;29078;41.932;25.554;2023-02-17T11:24:09;100333.97;;;14.57;31.50
43488;BME280;29078;41.932;25.554;2023-02-17T11:26:35;100228.31;;;14.00;32.12
43488;BME280;29078;41.932;25.554;2023-02-17T11:29:16;100299.97;;;14.52;31.30
43488;BME280;29078;41.932;25.554;2023-02-17T11:32:10;100326.34;;;14.69;30.97
43488;BME280;29078;41.932;25.554;2023-02-17T11:34:41;100292.81;;;14.53;31.52
43488;BME280;29078;41.932;25.554;2023-02-17T11:39:43;100303.38;;;14.46;31.19
43488;BME280;29078;41.932;25.554;2023-02-17T11:42:22;100319.34;;;14.82;31.24
43488;BME280;29078;41.932;25.554;2023-02-17T11:44:48;100331.00;;;14.81;31.39
43488;BME280;29078;41.932;25.554;2023-02-17T11:58:27;100307.81;;;14.75;29.60
43488;BME280;29078;41.932;25.554;2023-02-17T12:14:39;100251.78;;;14.55;30.05
43488;BME280;29078;41.932;25.554;2023-02-17T12:17:18;100269.34;;;14.71;30.30
43488;BME280;29078;41.932;25.554;2023-02-17T12:22:36;100196.38;;;14.23;30.40
43488;BME280;29078;41.932;25.554;2023-02-17T12:28:28;100212.94;;;14.40;29.74
43488;BME280;29078;41.932;25.554;2023-02-17T12:31:07;100248.44;;;14.68;30.79
43488;BME280;29078;41.932;25.554;2023-02-17T12:36:18;100220.91;;;14.54;30.69
43488;BME280;29078;41.932;25.554;2023-02-17T12:38:47;100169.44;;;14.26;30.53
43488;BME280;29078;41.932;25.554;2023-02-17T12:41:25;100206.78;;;14.54;28.72
43488;BME280;29078;41.932;25.554;2023-02-17T12:44:05;100115.25;;;14.06;29.88
43488;BME280;29078;41.932;25.554;2023-02-17T12:46:43;100139.97;;;14.21;27.90
43488;BME280;29078;41.932;25.554;2023-02-17T12:52:09;100194.97;;;14.56;27.86
43488;BME280;29078;41.932;25.554;2023-02-17T12:54:46;100232.81;;;14.94;28.51
43488;BME280;29078;41.932;25.554;2023-02-17T12:57:15;100194.66;;;14.66;28.08
43488;BME280;29078;41.932;25.554;2023-02-17T12:59:44;100183.00;;;14.67;28.26
43488;BME280;29078;41.932;25.554;2023-02-17T13:02:18;100203.81;;;14.63;27.80
43488;BME280;29078;41.932;25.554;2023-02-17T13:04:48;100229.25;;;15.09;27.98
43488;BME280;29078;41.932;25.554;2023-02-17T13:07:22;100229.06;;;15.10;27.30
43488;BME280;29078;41.932;25.554;2023-02-17T13:09:53;100109.13;;;14.41;28.25
43488;BME280;29078;41.932;25.554;2023-02-17T13:14:55;100239.63;;;15.25;27.85
43488;BME280;29078;41.932;25.554;2023-02-17T13:17:37;100126.75;;;14.63;27.71
43488;BME280;29078;41.932;25.554;2023-02-17T13:22:32;99949.34;;;13.59;27.86
43488;BME280;29078;41.932;25.554;2023-02-17T13:24:58;100192.47;;;15.12;27.60
43488;BME280;29078;41.932;25.554;2023-02-17T13:32:30;100219.13;;;15.47;27.21
43488;BME280;29078;41.932;25.554;2023-02-17T13:35:28;100227.75;;;15.49;26.96
43488;BME280;29078;41.932;25.554;2023-02-17T13:37:54;100170.22;;;15.20;26.85
43488;BME280;29078;41.932;25.554;2023-02-17T13:42:53;100142.75;;;15.13;26.83
43488;BME280;29078;41.932;25.554;2023-02-17T13:45:28;100186.09;;;15.35;26.60
43488;BME280;29078;41.932;25.554;2023-02-17T13:47:59;100174.69;;;15.41;26.98
43488;BME280;29078;41.932;25.554;2023-02-17T13:50:36;100207.44;;;15.63;26.62
43488;BME280;29078;41.932;25.554;2023-02-17T13:53:18;100185.38;;;15.47;27.03
43488;BME280;29078;41.932;25.554;2023-02-17T13:55:44;100175.44;;;15.35;26.35
43488;BME280;29078;41.932;25.554;2023-02-17T13:58:10;100209.31;;;15.69;26.34
43488;BME280;29078;41.932;25.554;2023-02-17T14:00:35;100195.03;;;15.76;25.87
43488;BME280;29078;41.932;25.554;2023-02-17T14:03:20;100194.91;;;15.91;25.37
43488;BME280;29078;41.932;25.554;2023-02-17T14:05:47;100077.13;;;15.20;25.53
43488;BME280;29078;41.932;25.554;2023-02-17T14:08:18;100198.22;;;16.00;25.49
43488;BME280;29078;41.932;25.554;2023-02-17T14:10:44;100195.97;;;15.97;25.01
43488;BME280;29078;41.932;25.554;2023-02-17T14:13:11;100190.44;;;15.98;25.16
43488;BME280;29078;41.932;25.554;2023-02-17T14:15:47;100058.69;;;15.18;24.99
43488;BME280;29078;41.932;25.554;2023-02-17T14:18:15;100188.44;;;16.07;25.07
43488;BME280;29078;41.932;25.554;2023-02-17T14:20:40;100103.38;;;15.57;24.75
43488;BME280;29078;41.932;25.554;2023-02-17T14:23:12;100202.44;;;16.22;23.67
43488;BME280;29078;41.932;25.554;2023-02-17T14:25:40;100147.19;;;15.89;24.28
43488;BME280;29078;41.932;25.554;2023-02-17T14:28:20;100111.69;;;15.76;23.96